Pooler, Georgia
Current Conditions -  °F | °C
As of 3:18 AM on Friday 31 Oct 2014 (Local Time) from KSAV Reporting Station
Haze Haze  
Wind Chill: 55°   Ceiling: Unl
Heat Index: 55°   Visibility: 1.5mi
Dew Point: 52°   Wind: 0mph
Humidity: 88%   Direction: NA
Pressure: 29.89"   Gusts: NA
Location:  32.12°N, 81.25°W
Report Text: KSAV 310718Z AUTO 00000KT 1 1/2SM R10/4500VP6000FT BR CLR 13/11 A2989 RMK AO2 VIS 3/4V2 1/2 TSNO
Loading
Personal Weather Stations






























Interactive Weather Map
Tropical Storm Tracking
New forecast layout! Learn more

10-Day Weather Forecast

Advertisements
Track Severe Weather on mobile